Time;durP1;ratioP1;P1;durP2;ratioP2;P2;SDS_P1;SDS_P2;PMS_P1;PMS_P2;Temp;Humidity;BMP_temperature;BMP_pressure;BME280_temperature;BME280_humidity;BME280_pressure;Samples;Min_cycle;Max_cycle;Signal;HPM_P1;HPM_P2
2022/11/13 00:00:35;;;;;;;21.55;11.30;;;;;;;27.48;21.15;99653.84;6246433;22;20016;-82
2022/11/13 00:03:02;;;;;;;19.90;11.65;;;;;;;25.59;23.49;99662.31;6246225;22;19989;-82
2022/11/13 00:05:28;;;;;;;20.88;10.50;;;;;;;25.83;23.51;99665.06;6246400;22;20335;-82
2022/11/13 00:07:54;;;;;;;20.52;9.52;;;;;;;25.19;24.09;99663.59;6244634;23;19907;-82
2022/11/13 00:10:20;;;;;;;19.55;11.07;;;;;;;25.54;23.77;99662.72;6246240;23;19917;-82
2022/11/13 00:12:46;;;;;;;21.52;10.95;;;;;;;25.62;23.67;99662.31;6246562;23;19907;-81
2022/11/13 00:15:12;;;;;;;20.48;10.75;;;;;;;26.29;22.75;99667.69;6246054;23;19915;-82
2022/11/13 00:17:38;;;;;;;18.85;10.88;;;;;;;26.39;22.34;99660.38;6246428;23;19987;-82
2022/11/13 00:20:04;;;;;;;17.95;10.10;;;;;;;26.63;22.14;99660.19;6246325;23;19908;-82
2022/11/13 00:22:30;;;;;;;19.40;10.00;;;;;;;27.02;21.73;99659.13;6246122;22;20099;-82
2022/11/13 00:24:57;;;;;;;18.95;10.27;;;;;;;27.35;21.42;99655.59;6246213;23;19961;-81
2022/11/13 00:27:23;;;;;;;21.42;11.88;;;;;;;27.21;21.36;99655.72;6246237;23;19911;-82
2022/11/13 00:29:49;;;;;;;24.48;12.23;;;;;;;27.18;21.69;99657.34;6246124;23;19908;-82
2022/11/13 00:32:15;;;;;;;18.92;10.93;;;;;;;26.55;22.16;99657.84;6245873;23;19919;-82
2022/11/13 00:34:41;;;;;;;19.98;9.43;;;;;;;25.59;23.53;99662.31;6246361;23;19903;-81
2022/11/13 00:37:07;;;;;;;19.45;10.63;;;;;;;25.51;23.51;99664.34;6246153;23;19908;-82
2022/11/13 00:39:33;;;;;;;21.87;10.90;;;;;;;25.87;22.89;99657.41;6245752;23;20308;-81
2022/11/13 00:41:59;;;;;;;15.18;8.57;;;;;;;26.58;22.23;99663.44;6245735;23;19954;-82
2022/11/13 00:44:25;;;;;;;16.23;8.38;;;;;;;26.71;21.93;99656.13;6245716;23;19915;-82
2022/11/13 00:46:51;;;;;;;18.35;9.23;;;;;;;26.96;21.43;99650.31;6245571;23;19915;-82
2022/11/13 00:49:17;;;;;;;19.73;10.18;;;;;;;27.22;21.16;99646.84;6246133;23;19908;-82
2022/11/13 00:51:43;;;;;;;19.25;10.02;;;;;;;27.09;21.48;99645.78;6246088;23;19915;-82
2022/11/13 00:54:09;;;;;;;18.38;9.80;;;;;;;27.19;21.00;99647.66;6246268;23;19908;-82
2022/11/13 00:56:35;;;;;;;18.55;9.93;;;;;;;26.97;21.39;99639.84;6245969;23;19953;-82
2022/11/13 00:59:01;;;;;;;20.33;9.68;;;;;;;26.13;22.73;99644.84;6244116;22;19954;-82
2022/11/13 01:01:27;;;;;;;13.23;7.63;;;;;;;24.91;24.29;99636.31;6245663;23;20020;-82
2022/11/13 01:03:53;;;;;;;15.48;8.30;;;;;;;23.86;25.50;99645.31;6245821;23;19916;-82
2022/11/13 01:06:24;;;;;;;16.40;8.25;;;;;;;23.42;26.34;99636.28;6245668;23;19904;-82
2022/11/13 01:08:54;;;;;;;16.20;8.90;;;;;;;24.00;25.56;99640.56;6244264;23;19957;-82
2022/11/13 01:11:23;;;;;;;17.20;8.98;;;;;;;25.15;24.01;99631.88;6245713;22;19911;-82
2022/11/13 01:13:51;;;;;;;14.02;7.95;;;;;;;25.90;22.95;99636.91;6245480;22;20400;-82
2022/11/13 01:16:19;;;;;;;14.90;7.53;;;;;;;24.78;24.32;99632.31;6245610;22;20242;-82
2022/11/13 01:18:45;;;;;;;15.77;8.30;;;;;;;25.30;23.51;99625.00;6245846;22;19946;-82
2022/11/13 01:21:23;;;;;;;15.38;8.15;;;;;;;25.60;23.47;99630.19;6243903;23;20016;-81
2022/11/13 01:23:50;;;;;;;15.60;8.15;;;;;;;25.65;23.31;99629.78;6246040;22;20004;-82
2022/11/13 01:26:25;;;;;;;16.35;7.78;;;;;;;25.35;23.69;99633.84;6245876;23;19980;-82
2022/11/13 01:28:51;;;;;;;19.50;9.50;;;;;;;24.60;24.61;99625.84;6245624;22;20008;-82
2022/11/13 01:31:20;;;;;;;13.27;6.68;;;;;;;24.20;25.34;99637.44;6245362;23;19986;-82
2022/11/13 01:33:48;;;;;;;14.27;7.57;;;;;;;24.74;24.36;99628.66;6244902;22;19918;-82
2022/11/13 01:36:21;;;;;;;11.25;6.32;;;;;;;23.18;26.63;99630.13;6245681;22;20274;-82
2022/11/13 01:38:47;;;;;;;16.10;8.60;;;;;;;23.98;25.59;99628.13;6246026;22;19943;-81
2022/11/13 01:41:28;;;;;;;13.20;7.38;;;;;;;23.41;26.10;99624.25;6245520;23;19908;-82
2022/11/13 01:43:54;;;;;;;;;;;;;;;22.95;26.55;99628.75;6245547;22;19942;-82
2022/11/13 01:46:31;;;;;;;14.60;7.40;;;;;;;23.03;26.76;99617.22;6245315;22;19951;-82
2022/11/13 01:49:09;;;;;;;14.38;7.65;;;;;;;23.85;25.59;99626.88;6245457;22;19927;-82
2022/11/13 01:51:48;;;;;;;16.00;9.50;;;;;;;25.04;24.16;99623.44;6244058;23;20342;-82
2022/11/13 01:54:20;;;;;;;16.75;7.72;;;;;;;24.76;24.06;99625.47;6245790;22;20041;-82
2022/11/13 01:56:47;;;;;;;13.60;6.60;;;;;;;24.01;24.84;99621.72;6246123;22;19911;-82
2022/11/13 01:59:17;;;;;;;12.80;7.00;;;;;;;23.30;25.92;99624.19;6245426;22;19904;-81
2022/11/13 02:01:43;;;;;;;14.27;7.50;;;;;;;24.24;24.81;99615.78;6245282;22;19930;-81
2022/11/13 02:04:10;;;;;;;13.80;6.68;;;;;;;25.01;23.72;99629.09;6245255;23;19929;-81
2022/11/13 02:06:42;;;;;;;13.48;7.00;;;;;;;25.09;23.70;99623.03;6245153;23;19907;-82
2022/11/13 02:09:10;;;;;;;10.68;5.53;;;;;;;25.66;22.79;99620.09;6245479;22;20249;-82
2022/11/13 02:11:37;;;;;;;12.47;6.73;;;;;;;26.19;22.26;99620.66;6245318;22;19912;-82
2022/11/13 02:14:05;;;;;;;14.50;7.57;;;;;;;25.30;22.95;99616.56;6245589;22;20270;-81
2022/11/13 02:16:33;;;;;;;13.50;7.25;;;;;;;24.62;23.73;99618.63;6245375;22;19938;-81
2022/11/13 02:19:03;;;;;;;14.43;7.57;;;;;;;25.23;23.07;99613.78;6245609;22;19911;-81
2022/11/13 02:21:38;;;;;;;12.70;6.67;;;;;;;25.57;22.59;99614.13;6245270;22;20028;-81
2022/11/13 02:24:13;;;;;;;10.65;6.03;;;;;;;25.59;22.67;99612.50;6245319;22;20249;-81
2022/11/13 02:26:40;;;;;;;9.48;5.88;;;;;;;24.84;23.67;99613.03;6245429;23;20384;-82
2022/11/13 02:29:06;;;;;;;13.18;6.40;;;;;;;24.62;24.06;99610.19;6245624;23;19978;-81
2022/11/13 02:31:32;;;;;;;10.77;5.35;;;;;;;25.33;23.03;99613.75;6245539;23;19953;-81
2022/11/13 02:34:00;;;;;;;12.88;6.85;;;;;;;25.60;22.63;99616.91;6245025;23;19911;-81
2022/11/13 02:36:27;;;;;;;10.35;6.13;;;;;;;25.56;22.67;99616.13;6245287;22;19912;-82
2022/11/13 02:38:56;;;;;;;11.13;5.87;;;;;;;25.45;22.80;99612.56;6245186;22;19903;-81
2022/11/13 02:41:22;;;;;;;10.70;5.75;;;;;;;25.25;22.82;99619.81;6244662;22;19907;-81
2022/11/13 02:43:48;;;;;;;10.43;5.82;;;;;;;24.99;23.38;99612.63;6245341;23;19918;-82
2022/11/13 02:46:14;;;;;;;10.43;5.30;;;;;;;22.86;26.12;99620.69;6246619;23;19982;-82
2022/11/13 02:48:40;;;;;;;9.15;4.95;;;;;;;23.36;25.49;99619.06;6247338;23;19911;-82
2022/11/13 02:51:07;;;;;;;9.77;5.15;;;;;;;24.29;24.35;99619.00;6247119;23;19914;-82
2022/11/13 02:53:33;;;;;;;7.63;4.45;;;;;;;25.51;22.79;99615.75;6247695;22;20276;-82
2022/11/13 02:55:59;;;;;;;9.75;5.07;;;;;;;26.41;21.92;99616.50;6244988;23;19907;-82
2022/11/13 02:58:25;;;;;;;13.93;7.35;;;;;;;27.00;20.74;99616.44;6247320;23;19939;-82
2022/11/13 03:00:51;;;;;;;17.90;9.13;;;;;;;27.34;20.32;99614.47;6247469;23;20211;-81
2022/11/13 03:03:17;;;;;;;16.02;7.90;;;;;;;27.45;19.88;99603.91;6246952;23;20313;-82
2022/11/13 03:05:48;;;;;;;15.52;7.88;;;;;;;27.52;19.98;99603.00;6246850;23;19983;-81
2022/11/13 03:08:15;;;;;;;16.73;8.13;;;;;;;27.56;19.59;99615.06;6246825;22;19908;-81
2022/11/13 03:10:41;;;;;;;15.80;8.55;;;;;;;27.55;19.33;99610.66;6246655;22;20338;-82
2022/11/13 03:13:07;;;;;;;16.83;8.18;;;;;;;27.53;19.31;99618.72;6246788;23;19914;-82
2022/11/13 03:15:33;;;;;;;20.17;9.55;;;;;;;26.98;19.60;99619.66;6246302;23;19916;-82
2022/11/13 03:18:06;;;;;;;15.57;8.48;;;;;;;26.84;20.02;99613.38;6244891;23;19915;-81
2022/11/13 03:20:35;;;;;;;16.40;9.02;;;;;;;27.02;19.82;99617.63;6246901;22;20008;-81
2022/11/13 03:23:01;;;;;;;18.58;9.02;;;;;;;26.66;19.88;99625.56;6246637;22;19911;-81
2022/11/13 03:25:27;;;;;;;16.38;9.23;;;;;;;26.05;20.63;99620.72;6246817;22;20384;-81
2022/11/13 03:27:53;;;;;;;18.52;9.27;;;;;;;26.30;20.55;99629.06;6245287;22;19916;-81
2022/11/13 03:30:19;;;;;;;16.65;8.88;;;;;;;26.61;19.89;99634.47;6247165;23;19914;-81
2022/11/13 03:32:45;;;;;;;15.27;8.55;;;;;;;26.45;20.31;99627.72;6246649;23;19911;-81
2022/11/13 03:35:11;;;;;;;15.45;9.10;;;;;;;26.52;20.13;99619.22;6246659;23;19986;-81
2022/11/13 03:37:37;;;;;;;17.10;8.77;;;;;;;26.51;20.15;99618.44;6246635;23;19915;-81
2022/11/13 03:40:04;;;;;;;15.73;8.30;;;;;;;26.45;20.20;99630.56;6246381;23;19993;-81
2022/11/13 03:42:30;;;;;;;15.93;8.93;;;;;;;26.43;20.14;99636.59;6246275;22;20008;-81
2022/11/13 03:44:56;;;;;;;17.05;9.70;;;;;;;26.28;20.15;99625.84;6244767;23;19918;-81
2022/11/13 03:47:22;;;;;;;13.27;7.43;;;;;;;26.43;20.14;99630.16;6247055;23;19915;-81
2022/11/13 03:49:48;;;;;;;17.55;9.15;;;;;;;26.79;19.67;99625.91;6246367;23;19904;-81
2022/11/13 03:52:14;;;;;;;14.73;8.88;;;;;;;26.12;20.40;99631.97;6246735;23;19939;-82
2022/11/13 03:54:40;;;;;;;15.40;8.02;;;;;;;25.04;21.37;99631.09;6246371;23;19911;-82
2022/11/13 03:57:06;;;;;;;16.67;8.48;;;;;;;25.31;21.11;99635.84;6246131;23;19904;-82
2022/11/13 03:59:32;;;;;;;13.93;8.15;;;;;;;25.49;21.13;99633.03;6246622;23;20248;-81
2022/11/13 04:01:58;;;;;;;17.50;8.93;;;;;;;25.27;21.17;99635.06;6246617;23;20218;-81
2022/11/13 04:04:25;;;;;;;15.27;7.85;;;;;;;25.13;21.47;99629.47;6246761;23;19908;-81
2022/11/13 04:06:50;;;;;;;14.38;8.57;;;;;;;24.28;22.58;99636.22;6245952;23;19911;-81
2022/11/13 04:09:17;;;;;;;15.52;8.35;;;;;;;24.64;22.24;99630.25;6245909;23;19930;-81
2022/11/13 04:11:43;;;;;;;15.23;8.88;;;;;;;25.28;21.48;99630.22;6246291;23;19915;-81
2022/11/13 04:14:09;;;;;;;16.60;8.95;;;;;;;25.73;20.85;99634.16;6246255;23;19914;-81
2022/11/13 04:16:35;;;;;;;14.85;9.00;;;;;;;26.06;20.32;99623.13;6246227;23;19916;-81
2022/11/13 04:19:01;;;;;;;16.48;8.52;;;;;;;26.20;20.41;99630.72;6246017;23;20334;-81
2022/11/13 04:21:27;;;;;;;19.70;9.23;;;;;;;26.46;20.16;99616.06;6246044;23;19912;-81
2022/11/13 04:23:53;;;;;;;13.18;7.72;;;;;;;26.54;20.17;99623.25;6245982;22;19911;-81
2022/11/13 04:26:19;;;;;;;18.30;8.90;;;;;;;26.14;20.29;99635.16;6246245;23;19908;-81
2022/11/13 04:28:45;;;;;;;14.10;7.82;;;;;;;26.23;20.28;99627.09;6246195;23;19914;-82
2022/11/13 04:31:11;;;;;;;14.18;8.43;;;;;;;26.08;20.53;99626.34;6246259;23;19911;-81
2022/11/13 04:33:37;;;;;;;16.13;8.93;;;;;;;26.37;20.37;99629.78;6246254;23;19904;-81
2022/11/13 04:36:04;;;;;;;17.05;8.93;;;;;;;26.15;20.18;99625.53;6246298;23;19962;-81
2022/11/13 04:38:30;;;;;;;15.48;7.95;;;;;;;26.23;20.53;99624.28;6245631;22;19965;-81
2022/11/13 04:43:40;;;;;;;16.27;8.55;;;;;;;25.88;20.55;99616.00;6245734;23;19918;-82
2022/11/13 04:46:07;;;;;;;15.57;8.80;;;;;;;25.46;21.17;99618.97;6245560;23;19915;-81
2022/11/13 04:48:33;;;;;;;14.50;8.52;;;;;;;24.94;21.75;99610.22;6246450;23;19907;-81
2022/11/13 04:50:59;;;;;;;16.00;8.15;;;;;;;25.06;21.57;99607.00;6245801;23;19912;-81
2022/11/13 04:53:25;;;;;;;13.65;7.35;;;;;;;24.75;22.11;99613.41;6245856;23;19943;-81
2022/11/13 04:55:54;;;;;;;16.02;8.45;;;;;;;24.31;22.71;99618.59;6245650;23;19913;-81
2022/11/13 04:58:20;;;;;;;15.25;8.07;;;;;;;25.16;22.05;99617.41;6245905;23;20447;-81
2022/11/13 05:00:46;;;;;;;15.95;8.32;;;;;;;25.70;21.24;99613.25;6245714;23;19919;-81
2022/11/13 05:03:12;;;;;;;14.43;7.68;;;;;;;25.85;20.83;99619.63;6246126;23;20238;-81
2022/11/13 05:05:38;;;;;;;16.60;8.57;;;;;;;24.68;22.20;99617.03;6245818;23;19918;-81
2022/11/13 05:08:04;;;;;;;13.88;8.15;;;;;;;24.73;22.47;99621.44;6245587;23;19943;-81
2022/11/13 05:10:30;;;;;;;17.40;8.85;;;;;;;24.52;22.64;99624.25;6245487;23;20025;-81
2022/11/13 05:12:56;;;;;;;16.20;8.50;;;;;;;24.71;22.47;99624.63;6245514;23;20230;-81
2022/11/13 05:15:22;;;;;;;17.13;8.38;;;;;;;24.98;22.24;99616.63;6245617;23;20020;-81
2022/11/13 05:17:49;;;;;;;14.00;6.93;;;;;;;25.51;21.57;99629.81;6245825;23;19912;-81
2022/11/13 05:20:15;;;;;;;15.60;8.48;;;;;;;25.87;21.24;99620.00;6245230;23;19907;-81
2022/11/13 05:22:41;;;;;;;13.77;7.60;;;;;;;26.17;20.58;99627.91;6245603;22;20011;-81
2022/11/13 05:25:07;;;;;;;14.48;7.65;;;;;;;26.42;20.58;99626.53;6246172;23;19907;-81
2022/11/13 05:27:33;;;;;;;14.27;7.10;;;;;;;26.55;20.42;99627.66;6245614;23;20007;-81
2022/11/13 05:29:59;;;;;;;13.17;7.37;;;;;;;26.61;20.27;99628.00;6245621;23;19907;-81
2022/11/13 05:32:25;;;;;;;16.75;8.02;;;;;;;26.48;20.33;99622.09;6245280;23;19930;-81
2022/11/13 05:34:51;;;;;;;14.60;7.35;;;;;;;26.36;20.49;99628.22;6245568;23;20325;-81
2022/11/13 05:37:17;;;;;;;13.75;7.15;;;;;;;26.38;20.56;99619.34;6245778;23;20191;-81
2022/11/13 05:39:43;;;;;;;11.20;6.57;;;;;;;26.37;20.45;99617.75;6245609;23;19908;-81
2022/11/13 05:42:09;;;;;;;13.40;6.40;;;;;;;26.14;20.96;99625.94;6245325;23;19911;-81
2022/11/13 05:44:35;;;;;;;12.68;5.93;;;;;;;26.32;20.69;99623.81;6245291;23;19920;-81
2022/11/13 05:47:02;;;;;;;10.73;6.53;;;;;;;26.08;20.99;99625.53;6245786;23;19950;-81
2022/11/13 05:49:28;;;;;;;10.80;6.45;;;;;;;26.32;20.77;99629.44;6245053;23;19922;-81
2022/11/13 05:51:54;;;;;;;9.15;6.10;;;;;;;26.42;20.64;99625.75;6245612;23;19911;-81
2022/11/13 05:54:20;;;;;;;10.27;6.30;;;;;;;26.70;20.07;99615.06;6245576;23;19915;-81
2022/11/13 05:56:46;;;;;;;11.13;6.63;;;;;;;26.64;20.38;99616.72;6245869;23;19911;-81
2022/11/13 05:59:12;;;;;;;10.70;6.25;;;;;;;26.74;20.13;99613.03;6245388;23;19914;-81
2022/11/13 06:01:39;;;;;;;10.98;5.97;;;;;;;26.86;20.14;99606.13;6245517;23;19918;-81
2022/11/13 06:04:07;;;;;;;10.55;5.45;;;;;;;27.00;19.87;99611.59;6243666;23;19908;-81
2022/11/13 06:06:33;;;;;;;13.68;7.55;;;;;;;27.12;19.73;99611.06;6245614;22;20257;-81
2022/11/13 06:09:02;;;;;;;11.10;6.28;;;;;;;27.25;19.46;99603.72;6246013;22;19973;-81
2022/11/13 06:11:29;;;;;;;10.15;6.38;;;;;;;27.29;19.27;99600.84;6245293;22;20309;-81
2022/11/13 06:13:56;;;;;;;12.38;6.75;;;;;;;27.23;19.18;99610.97;6245306;22;19982;-81
2022/11/13 06:16:26;;;;;;;11.17;6.67;;;;;;;27.23;19.13;99608.16;6245672;22;19924;-81
2022/11/13 06:19:00;;;;;;;10.70;6.10;;;;;;;26.95;19.43;99605.63;6245125;22;19970;-81
2022/11/13 06:21:30;;;;;;;10.50;6.43;;;;;;;27.04;19.59;99603.13;6246709;22;20513;-81
2022/11/13 06:23:57;;;;;;;11.52;6.65;;;;;;;26.83;19.42;99608.94;6247837;22;19978;-81
2022/11/13 06:26:27;;;;;;;9.73;5.97;;;;;;;26.66;19.97;99605.84;6247575;22;19903;-81
2022/11/13 06:28:53;;;;;;;11.57;6.10;;;;;;;26.65;20.03;99600.63;6247520;22;19939;-81
2022/11/13 06:31:22;;;;;;;11.43;6.60;;;;;;;26.82;20.13;99596.06;6247442;23;19918;-81
2022/11/13 06:33:48;;;;;;;9.23;5.97;;;;;;;26.80;19.65;99607.75;6247029;22;19903;-82
2022/11/13 06:36:17;;;;;;;11.88;5.93;;;;;;;26.84;19.87;99605.72;6247406;22;19911;-81
2022/11/13 06:38:43;;;;;;;12.52;6.72;;;;;;;26.65;19.89;99601.41;6245660;23;20321;-82
2022/11/13 06:41:11;;;;;;;11.50;7.25;;;;;;;26.43;19.89;99604.81;6247516;22;20023;-82
2022/11/13 06:43:37;;;;;;;10.00;5.83;;;;;;;26.13;20.72;99602.63;6247000;22;19914;-82
2022/11/13 06:46:06;;;;;;;12.67;6.77;;;;;;;25.76;21.07;99593.94;6247222;22;19920;-82
2022/11/13 06:48:33;;;;;;;12.70;6.20;;;;;;;25.61;21.25;99601.63;6245604;22;20038;-82
2022/11/13 06:51:05;;;;;;;11.70;6.70;;;;;;;24.09;22.99;99603.72;6246853;23;19907;-82
2022/11/13 06:53:33;;;;;;;10.60;5.90;;;;;;;24.48;22.58;99601.75;6247407;22;20048;-82
2022/11/13 06:56:00;;;;;;;9.73;5.55;;;;;;;24.99;22.23;99590.16;6246881;22;19907;-82
2022/11/13 06:58:26;;;;;;;10.23;6.03;;;;;;;24.30;22.91;99602.94;6247197;22;20242;-82
2022/11/13 07:00:53;;;;;;;10.60;6.30;;;;;;;24.20;23.04;99604.53;6246965;23;19943;-82
2022/11/13 07:03:25;;;;;;;9.15;5.22;;;;;;;24.13;23.07;99595.31;6245338;23;19908;-82
2022/11/13 07:05:51;;;;;;;8.35;5.03;;;;;;;24.37;23.04;99600.16;6246688;22;20454;-82
2022/11/13 07:08:17;;;;;;;10.55;6.50;;;;;;;23.69;23.65;99603.97;6247154;23;19907;-82
2022/11/13 07:10:51;;;;;;;11.00;6.10;;;;;;;24.58;22.88;99600.16;6246767;23;19911;-82
2022/11/13 07:13:17;;;;;;;8.77;5.63;;;;;;;25.32;21.82;99600.13;6246733;22;20333;-82
2022/11/13 07:15:43;;;;;;;8.38;5.15;;;;;;;25.67;21.39;99597.19;6246563;23;19926;-82
2022/11/13 07:18:09;;;;;;;8.63;5.18;;;;;;;24.01;23.38;99599.28;6246703;23;19914;-82
2022/11/13 07:20:35;;;;;;;6.55;4.25;;;;;;;24.60;22.77;99594.94;6247010;23;19909;-82
2022/11/13 07:23:03;;;;;;;9.18;5.38;;;;;;;25.23;22.38;99594.91;6246766;23;19912;-82
2022/11/13 07:25:30;;;;;;;10.68;5.47;;;;;;;25.78;21.67;99586.69;6245325;23;19908;-82
2022/11/13 07:27:56;;;;;;;8.37;5.07;;;;;;;26.21;21.14;99587.25;6247009;23;19986;-82
2022/11/13 07:30:22;;;;;;;8.13;4.93;;;;;;;26.31;20.89;99574.31;6246884;22;19950;-81
2022/11/13 07:32:49;;;;;;;9.23;5.50;;;;;;;26.26;21.04;99578.38;6244254;23;20374;-82
2022/11/13 07:35:15;;;;;;;8.67;5.03;;;;;;;26.63;21.27;99581.31;6247105;22;19911;-82
2022/11/13 07:37:42;;;;;;;7.22;4.32;;;;;;;26.97;20.63;99580.63;6246906;22;19939;-81
2022/11/13 07:40:09;;;;;;;7.50;4.97;;;;;;;26.68;21.00;99574.44;6247057;22;19907;-82
2022/11/13 07:42:35;;;;;;;6.53;4.72;;;;;;;26.81;20.42;99575.56;6246831;22;19918;-82
2022/11/13 07:45:01;;;;;;;7.97;5.13;;;;;;;26.07;20.99;99585.31;6245924;23;19911;-82
2022/11/13 07:47:27;;;;;;;7.53;5.20;;;;;;;25.30;22.11;99577.19;6246689;22;19922;-82
2022/11/13 07:49:55;;;;;;;9.18;5.63;;;;;;;24.62;22.80;99589.75;6246911;23;19987;-82
2022/11/13 07:52:21;;;;;;;8.30;5.22;;;;;;;23.79;24.52;99587.19;6246598;22;19943;-82
2022/11/13 07:54:47;;;;;;;8.20;5.22;;;;;;;23.79;24.46;99592.00;6246538;23;19990;-82
2022/11/13 07:57:13;;;;;;;11.80;7.30;;;;;;;24.05;23.74;99591.66;6246762;23;19931;-82
2022/11/13 07:59:39;;;;;;;8.73;6.03;;;;;;;23.79;24.29;99598.41;6246292;23;20373;-83
2022/11/13 08:02:08;;;;;;;8.35;5.57;;;;;;;22.66;25.93;99602.56;6246426;23;20229;-83
2022/11/13 08:04:34;;;;;;;8.38;5.57;;;;;;;23.21;25.47;99603.31;6246189;22;19912;-82
2022/11/13 08:07:00;;;;;;;8.98;5.43;;;;;;;23.00;25.53;99606.78;6246475;23;19927;-83
2022/11/13 08:09:26;;;;;;;8.90;5.45;;;;;;;23.48;24.96;99613.09;6246094;23;20250;-82
2022/11/13 08:11:52;;;;;;;7.47;4.88;;;;;;;22.64;25.94;99611.31;6246656;23;19911;-82
2022/11/13 08:14:18;;;;;;;8.27;5.72;;;;;;;21.35;27.93;99615.03;6244614;23;19914;-82
2022/11/13 08:16:44;;;;;;;9.70;5.85;;;;;;;22.95;25.66;99607.16;6246041;23;19912;-82
2022/11/13 08:19:10;;;;;;;9.13;5.00;;;;;;;23.18;25.12;99607.69;6246164;23;19946;-82
2022/11/13 08:21:36;;;;;;;10.80;5.97;;;;;;;24.03;24.19;99610.91;6245972;23;19914;-82
2022/11/13 08:24:02;;;;;;;6.32;4.55;;;;;;;23.92;23.81;99602.44;6246273;23;19913;-83
2022/11/13 08:26:28;;;;;;;7.60;4.88;;;;;;;24.36;24.02;99601.38;6244680;23;20219;-83
2022/11/13 08:28:54;;;;;;;8.82;4.82;;;;;;;24.58;23.94;99606.59;6245922;23;19938;-83
2022/11/13 08:31:20;;;;;;;8.20;5.18;;;;;;;25.09;23.29;99613.78;6246640;23;19907;-82
2022/11/13 08:33:46;;;;;;;8.88;5.00;;;;;;;24.98;22.93;99613.81;6246196;23;19916;-82
2022/11/13 08:36:12;;;;;;;7.47;5.05;;;;;;;25.28;22.64;99618.97;6244439;23;19912;-82
2022/11/13 08:38:38;;;;;;;8.23;5.25;;;;;;;24.88;23.40;99611.03;6246104;23;20240;-83
2022/11/13 08:41:05;;;;;;;8.27;5.00;;;;;;;23.68;25.16;99614.41;6246114;23;19961;-82
2022/11/13 08:43:32;;;;;;;6.13;4.10;;;;;;;22.48;26.93;99612.75;6245799;23;19915;-83
2022/11/13 08:45:58;;;;;;;8.25;4.47;;;;;;;23.38;25.80;99607.44;6246031;23;19912;-82
2022/11/13 08:48:24;;;;;;;7.13;4.63;;;;;;;24.65;24.60;99603.78;6245943;23;19912;-82
2022/11/13 08:50:52;;;;;;;8.25;5.28;;;;;;;25.48;23.66;99614.56;6245879;23;19907;-82
2022/11/13 08:53:18;;;;;;;7.53;5.72;;;;;;;25.51;23.26;99605.28;6246176;22;19931;-82
2022/11/13 08:55:44;;;;;;;8.45;5.47;;;;;;;25.12;24.07;99610.19;6245778;22;20344;-82
2022/11/13 08:58:11;;;;;;;7.10;4.72;;;;;;;25.77;23.26;99613.22;6245624;23;19915;-82
2022/11/13 09:00:37;;;;;;;8.80;5.25;;;;;;;25.84;22.95;99615.19;6245832;23;20347;-82
2022/11/13 09:03:03;;;;;;;6.93;4.97;;;;;;;26.16;22.43;99615.88;6246042;22;19935;-82
2022/11/13 09:05:29;;;;;;;6.78;4.47;;;;;;;26.23;22.36;99615.03;6245733;22;20262;-82
2022/11/13 09:08:00;;;;;;;7.57;4.63;;;;;;;26.11;22.30;99609.88;6245825;23;19907;-82
2022/11/13 09:10:27;;;;;;;7.22;4.50;;;;;;;26.00;22.16;99604.25;6245692;22;20040;-82
2022/11/13 09:12:57;;;;;;;8.57;4.72;;;;;;;25.31;23.41;99607.75;6245522;22;19926;-82
2022/11/13 09:15:24;;;;;;;6.72;4.43;;;;;;;24.03;25.20;99608.91;6245820;22;20422;-83
2022/11/13 09:17:50;;;;;;;9.27;4.85;;;;;;;23.25;25.57;99607.75;6245993;22;19920;-82
2022/11/13 09:20:16;;;;;;;10.70;5.95;;;;;;;24.41;24.69;99600.97;6245606;23;19907;-82
2022/11/13 09:22:42;;;;;;;8.18;5.68;;;;;;;25.60;23.10;99599.25;6245384;23;19912;-82
2022/11/13 09:25:08;;;;;;;7.68;4.78;;;;;;;25.59;22.80;99589.19;6244208;23;20292;-82
2022/11/13 09:27:34;;;;;;;6.65;4.85;;;;;;;25.59;23.37;99598.44;6245313;23;20311;-82
2022/11/13 09:30:00;;;;;;;6.93;4.47;;;;;;;25.89;23.16;99592.25;6243952;23;19918;-83
2022/11/13 09:32:26;;;;;;;6.45;4.70;;;;;;;26.44;22.59;99589.53;6245976;23;19910;-83
2022/11/13 09:34:53;;;;;;;5.95;4.15;;;;;;;26.77;21.95;99590.91;6245753;23;20335;-83
2022/11/13 09:37:19;;;;;;;8.07;5.35;;;;;;;27.02;22.09;99585.81;6244108;23;19935;-83
2022/11/13 09:39:45;;;;;;;7.55;4.70;;;;;;;27.25;21.64;99586.78;6245700;23;20345;-83
2022/11/13 09:42:21;;;;;;;7.07;5.20;;;;;;;27.27;21.94;99581.53;6245285;23;19916;-83
2022/11/13 09:44:49;;;;;;;7.10;4.82;;;;;;;26.22;23.23;99588.06;6245394;22;20008;-83
2022/11/13 09:47:26;;;;;;;7.63;4.85;;;;;;;26.65;23.22;99589.38;6243901;23;20012;-82
2022/11/13 09:50:01;;;;;;;6.90;4.77;;;;;;;25.91;23.60;99589.84;6245657;22;20070;-82
2022/11/13 10:05:42;;;;;;;10.80;7.00;;;;;;;26.71;22.94;99582.84;6128826;22;2532970;-81
2022/11/13 10:08:34;;;;;;;9.57;6.13;;;;;;;27.47;22.28;99572.47;6224413;23;20035;-81
2022/11/13 10:11:31;;;;;;;10.10;5.82;;;;;;;27.78;21.46;99569.22;6224064;23;20024;-81
2022/11/13 10:14:34;;;;;;;;;;;;;;;;;;;;;
2022/11/13 10:17:20;;;;;;;9.07;5.90;;;;;;;27.40;22.55;99562.03;6218067;23;19979;-82
2022/11/13 10:20:19;;;;;;;9.07;5.95;;;;;;;27.67;22.46;99550.84;6198242;23;20013;-81
2022/11/13 10:22:54;;;;;;;8.25;5.82;;;;;;;27.63;22.81;99553.72;6223956;23;20032;-81
2022/11/13 10:25:31;;;;;;;8.77;5.93;;;;;;;27.23;23.04;99551.75;6224128;23;20009;-81
2022/11/13 10:27:59;;;;;;;8.75;6.00;;;;;;;27.73;22.42;99557.59;6224369;23;19911;-81
2022/11/13 10:30:26;;;;;;;9.25;5.90;;;;;;;27.68;22.38;99560.91;6224160;23;19908;-81
2022/11/13 10:32:52;;;;;;;9.65;6.45;;;;;;;25.96;24.51;99558.44;6224931;23;19915;-81
2022/11/13 10:35:27;;;;;;;13.07;8.27;;;;;;;23.08;28.50;99552.41;6224985;23;19911;-80
2022/11/13 10:38:03;;;;;;;8.88;6.25;;;;;;;25.04;25.92;99566.47;6224098;23;20034;-81
2022/11/13 10:40:32;;;;;;;12.57;6.85;;;;;;;26.18;24.00;99557.13;6223740;23;20058;-81
2022/11/13 10:43:22;;;;;;;8.82;5.72;;;;;;;26.89;23.54;99550.91;6224034;23;19962;-81
2022/11/13 10:46:00;;;;;;;8.70;5.97;;;;;;;26.82;23.79;99542.50;6184124;23;20066;-81
2022/11/13 10:48:32;;;;;;;8.40;4.90;;;;;;;26.98;23.38;99549.19;6223118;23;19923;-81
2022/11/13 10:51:01;;;;;;;8.90;6.15;;;;;;;26.57;23.65;99552.00;6224034;23;19986;-82
2022/11/13 10:53:37;;;;;;;8.00;5.50;;;;;;;27.41;23.42;99549.56;6223696;23;20341;-81
2022/11/13 10:56:11;;;;;;;8.25;5.45;;;;;;;28.16;22.30;99549.34;6223741;23;19907;-81
2022/11/13 10:58:37;;;;;;;10.05;5.65;;;;;;;28.64;21.45;99544.13;6223905;23;19908;-81
2022/11/13 11:01:20;;;;;;;8.73;6.00;;;;;;;28.32;22.01;99547.47;6223436;23;20011;-81
2022/11/13 11:03:50;;;;;;;8.57;6.30;;;;;;;27.36;22.90;99549.97;6223415;23;19908;-82
2022/11/13 11:06:16;;;;;;;9.13;6.63;;;;;;;27.21;23.49;99551.38;6217412;23;20013;-81
2022/11/13 11:08:42;;;;;;;8.57;5.95;;;;;;;26.77;24.01;99552.22;6216982;23;19930;-81
2022/11/13 11:14:27;;;;;;;11.43;7.93;;;;;;;26.13;24.89;99543.50;6217148;23;19978;-81
2022/11/13 11:16:54;;;;;;;11.38;7.60;;;;;;;25.42;25.04;99541.03;6216788;23;20063;-81
2022/11/13 11:19:27;;;;;;;12.13;6.95;;;;;;;24.61;26.76;99537.59;6216973;23;19904;-81
2022/11/13 11:22:18;;;;;;;10.07;6.10;;;;;;;25.15;25.53;99544.75;6217308;23;20338;-81
2022/11/13 11:25:27;;;;;;;9.52;7.05;;;;;;;26.70;24.31;99533.34;6216945;23;19904;-81
2022/11/13 11:28:03;;;;;;;10.48;6.35;;;;;;;27.12;23.40;99534.16;6205157;23;19917;-81
2022/11/13 11:30:46;;;;;;;10.85;6.88;;;;;;;27.74;22.87;99528.97;6216662;23;20029;-81
2022/11/13 11:33:21;;;;;;;11.23;7.45;;;;;;;27.42;22.69;99528.59;6216748;23;20004;-81
2022/11/13 11:35:58;;;;;;;13.13;8.05;;;;;;;27.89;22.21;99526.75;6217075;23;19916;-81
2022/11/13 11:38:31;;;;;;;9.43;6.95;;;;;;;28.27;21.94;99521.72;6216910;23;20102;-81
2022/11/13 11:41:13;;;;;;;9.70;6.45;;;;;;;28.70;22.22;99519.81;6216739;23;19914;-81
2022/11/13 11:43:44;;;;;;;9.65;6.80;;;;;;;28.93;21.42;99516.97;6216785;23;20012;-81
2022/11/13 11:46:12;;;;;;;9.95;6.32;;;;;;;29.41;21.22;99524.91;6216683;23;20058;-81
2022/11/13 11:48:39;;;;;;;9.07;6.25;;;;;;;29.21;21.08;99507.13;6217099;23;20015;-81
2022/11/13 11:51:25;;;;;;;10.15;6.97;;;;;;;28.48;22.29;99504.41;6217025;23;19915;-81
2022/11/13 11:54:06;;;;;;;10.60;7.10;;;;;;;28.24;22.47;99497.97;6216526;23;20018;-81